Time;durP1;ratioP1;P1;durP2;ratioP2;P2;SDS_P1;SDS_P2;PMS_P1;PMS_P2;Temp;Humidity;BMP_temperature;BMP_pressure;BME280_temperature;BME280_humidity;BME280_pressure;Samples;Min_cycle;Max_cycle;Signal;HPM_P1;HPM_P2
2022/04/04 00:00:10;;;;;;;15.13;10.83;;;-1.10;99.90;;;;;;4975194;28;20602;-87
2022/04/04 00:02:36;;;;;;;15.27;11.07;;;-1.20;99.90;;;;;;4974537;28;20211;-87
2022/04/04 00:05:03;;;;;;;16.53;11.53;;;-1.20;99.90;;;;;;4975384;28;20188;-87
2022/04/04 00:07:29;;;;;;;15.13;10.50;;;-1.30;99.90;;;;;;4959428;28;20230;-87
2022/04/04 00:09:55;;;;;;;15.93;11.17;;;-1.20;99.90;;;;;;4958958;28;20179;-87
2022/04/04 00:12:21;;;;;;;14.70;10.77;;;-1.20;99.90;;;;;;4958845;28;20200;-87
2022/04/04 00:14:50;;;;;;;14.80;10.90;;;-1.20;99.90;;;;;;4958810;28;20186;-87
2022/04/04 00:17:16;;;;;;;15.27;10.80;;;-1.10;99.90;;;;;;4958483;28;20202;-87
2022/04/04 00:19:42;;;;;;;14.93;10.70;;;-1.10;99.90;;;;;;4961864;28;20191;-87
2022/04/04 00:22:08;;;;;;;14.70;10.63;;;-1.10;99.90;;;;;;4974836;28;20250;-87
2022/04/04 00:24:36;;;;;;;13.93;10.53;;;-1.10;99.90;;;;;;4958664;28;20230;-87
2022/04/04 00:27:02;;;;;;;17.33;10.57;;;-1.10;99.90;;;;;;4958578;28;20180;-87
2022/04/04 00:29:28;;;;;;;16.33;11.10;;;-1.10;99.90;;;;;;4987213;28;20195;-87
2022/04/04 00:31:55;;;;;;;14.77;10.70;;;-1.10;99.90;;;;;;4977502;28;20187;-87
2022/04/04 00:34:21;;;;;;;16.73;11.50;;;-1.10;99.90;;;;;;4977885;28;20311;-87
2022/04/04 00:36:47;;;;;;;16.40;11.07;;;-1.10;99.90;;;;;;4966891;28;20204;-87
2022/04/04 00:39:16;;;;;;;16.83;11.23;;;-1.20;99.90;;;;;;4974440;28;20279;-87
2022/04/04 00:41:45;;;;;;;14.67;11.57;;;-1.20;99.90;;;;;;4974319;28;20663;-87
2022/04/04 00:44:11;;;;;;;14.67;11.17;;;-1.30;99.90;;;;;;4958475;28;20212;-87
2022/04/04 00:46:41;;;;;;;20.37;10.87;;;-1.30;99.90;;;;;;4974708;28;20265;-87
2022/04/04 00:49:08;;;;;;;15.93;10.87;;;-1.30;99.90;;;;;;4974647;28;20190;-87
2022/04/04 00:51:35;;;;;;;15.73;11.50;;;-1.30;99.90;;;;;;4975184;28;20183;-87
2022/04/04 00:54:02;;;;;;;19.30;11.50;;;-1.30;99.90;;;;;;4977887;28;20195;-87
2022/04/04 00:56:31;;;;;;;16.83;12.37;;;-1.30;99.90;;;;;;4978791;28;20190;-87
2022/04/04 00:58:57;;;;;;;17.37;10.83;;;-1.30;99.90;;;;;;4978564;28;20198;-87
2022/04/04 01:01:23;;;;;;;14.63;11.13;;;-1.30;99.90;;;;;;4994770;28;20199;-87
2022/04/04 01:03:50;;;;;;;17.80;11.10;;;-1.30;99.90;;;;;;4978231;28;20295;-87
2022/04/04 01:06:17;;;;;;;14.73;10.70;;;-1.30;99.90;;;;;;4977315;28;20179;-87
2022/04/04 01:08:44;;;;;;;17.87;11.40;;;-1.30;99.90;;;;;;4992166;28;20222;-87
2022/04/04 01:11:11;;;;;;;16.10;11.37;;;-1.30;99.90;;;;;;4977343;28;20194;-87
2022/04/04 01:13:43;;;;;;;18.33;12.37;;;-1.40;99.90;;;;;;4973498;28;20681;-87
2022/04/04 01:16:09;;;;;;;15.50;11.03;;;-1.50;99.90;;;;;;4957918;28;20187;-87
2022/04/04 01:18:35;;;;;;;15.80;11.00;;;-1.50;99.90;;;;;;4958016;28;20188;-87
2022/04/04 01:21:02;;;;;;;15.07;10.93;;;-1.60;99.90;;;;;;4957823;28;20190;-87
2022/04/04 01:23:42;;;;;;;15.13;10.53;;;-1.60;99.90;;;;;;4973882;28;20577;-87
2022/04/04 01:26:10;;;;;;;15.57;10.47;;;-1.60;99.90;;;;;;4973410;28;20180;-87
2022/04/04 01:28:37;;;;;;;14.07;10.17;;;-1.60;99.90;;;;;;4980003;28;20184;-87
2022/04/04 01:31:04;;;;;;;14.83;9.73;;;-1.70;99.90;;;;;;4977076;28;20237;-87
2022/04/04 01:33:30;;;;;;;15.70;10.60;;;-1.70;99.90;;;;;;4977246;28;20209;-87
2022/04/04 01:35:57;;;;;;;16.47;11.70;;;-1.80;99.90;;;;;;4977008;28;20187;-87
2022/04/04 01:38:25;;;;;;;13.80;10.43;;;-1.90;99.90;;;;;;4977421;28;20179;-87
2022/04/04 01:40:51;;;;;;;14.83;10.07;;;-1.90;99.90;;;;;;4976316;28;20227;-87
2022/04/04 01:43:17;;;;;;;13.17;9.90;;;-1.90;99.90;;;;;;4957723;28;20219;-87
2022/04/04 01:48:27;;;;;;;13.80;9.40;;;-2.00;99.90;;;;;;4973770;28;20184;-87
2022/04/04 01:50:53;;;;;;;14.63;9.87;;;-2.10;99.90;;;;;;4957524;28;20191;-87
2022/04/04 01:53:29;;;;;;;13.97;9.33;;;-2.10;99.90;;;;;;4957195;28;20211;-87
2022/04/04 01:56:03;;;;;;;14.53;9.23;;;-2.10;99.90;;;;;;4957663;28;20211;-87
2022/04/04 01:58:30;;;;;;;13.37;9.27;;;-2.10;99.90;;;;;;4964199;28;20226;-87
2022/04/04 02:00:58;;;;;;;14.87;10.10;;;-2.00;99.90;;;;;;4957643;28;20254;-87
2022/04/04 02:03:25;;;;;;;12.67;9.10;;;-2.10;99.90;;;;;;4957130;28;20220;-87
2022/04/04 02:05:51;;;;;;;15.77;10.83;;;-2.00;99.90;;;;;;4973798;28;20184;-87
2022/04/04 02:08:17;;;;;;;16.43;11.37;;;-2.00;99.90;;;;;;4957670;28;20248;-87
2022/04/04 02:10:44;;;;;;;17.40;10.73;;;-2.00;99.90;;;;;;4958799;28;20180;-87
2022/04/04 02:13:10;;;;;;;15.87;9.93;;;-2.00;99.90;;;;;;4992823;28;20203;-87
2022/04/04 02:15:36;;;;;;;19.07;10.80;;;-2.00;99.90;;;;;;4980470;28;20237;-87
2022/04/04 02:18:02;;;;;;;16.13;10.47;;;-2.00;99.90;;;;;;4979991;28;20194;-87
2022/04/04 02:20:28;;;;;;;15.80;10.80;;;-2.00;99.90;;;;;;4980142;28;20183;-87
2022/04/04 02:22:56;;;;;;;14.43;9.77;;;-2.10;99.90;;;;;;4980316;28;20256;-87
2022/04/04 02:25:22;;;;;;;13.73;9.17;;;-2.10;99.90;;;;;;4978305;28;20203;-87
2022/04/04 02:27:48;;;;;;;15.07;10.10;;;-2.10;99.90;;;;;;4962488;28;20751;-87
2022/04/04 02:30:14;;;;;;;14.47;10.47;;;-2.10;99.90;;;;;;4962263;28;20287;-87
2022/04/04 02:32:40;;;;;;;14.50;10.30;;;-2.00;99.90;;;;;;4961366;28;20214;-87
2022/04/04 02:35:06;;;;;;;13.27;9.17;;;-2.00;99.90;;;;;;4960766;28;20218;-87
2022/04/04 02:37:32;;;;;;;15.30;10.20;;;-2.00;99.90;;;;;;4977649;28;20173;-87
2022/04/04 02:39:58;;;;;;;13.77;10.03;;;-1.90;99.90;;;;;;4968402;28;20225;-87
2022/04/04 02:42:25;;;;;;;13.70;10.07;;;-1.90;99.90;;;;;;4980954;28;20199;-87
2022/04/04 02:44:51;;;;;;;13.70;9.63;;;-1.90;99.90;;;;;;4979836;28;20213;-87
2022/04/04 02:47:17;;;;;;;14.67;9.30;;;-1.80;99.90;;;;;;4979650;28;20214;-87
2022/04/04 02:49:43;;;;;;;14.43;10.63;;;-1.80;99.90;;;;;;4975796;28;20208;-87
2022/04/04 02:52:09;;;;;;;15.00;9.87;;;-1.80;99.90;;;;;;4960069;28;20251;-87
2022/04/04 02:54:35;;;;;;;14.67;9.77;;;-1.80;99.90;;;;;;4976764;28;20284;-87
2022/04/04 02:57:01;;;;;;;14.13;9.13;;;-1.80;99.90;;;;;;4976450;28;20183;-87
2022/04/04 02:59:27;;;;;;;12.17;8.77;;;-1.80;99.90;;;;;;4972705;28;20187;-87
2022/04/04 03:01:53;;;;;;;16.00;9.67;;;-1.80;99.90;;;;;;4979170;28;20577;-87
2022/04/04 03:04:19;;;;;;;15.20;9.47;;;-1.90;99.90;;;;;;4970468;28;20239;-87
2022/04/04 03:06:44;;;;;;;12.87;10.07;;;-2.00;99.90;;;;;;4969942;28;20176;-87
2022/04/04 03:09:11;;;;;;;16.17;9.93;;;-2.10;99.90;;;;;;4960010;28;20199;-87
2022/04/04 03:11:37;;;;;;;14.43;9.43;;;-2.20;99.90;;;;;;4976327;28;20184;-87
2022/04/04 03:14:05;;;;;;;14.40;9.97;;;-2.20;99.90;;;;;;4976079;28;20184;-87
2022/04/04 03:16:31;;;;;;;12.50;9.47;;;-2.30;99.90;;;;;;4975631;28;20202;-87
2022/04/04 03:18:59;;;;;;;16.87;10.83;;;-2.40;99.90;;;;;;4990391;28;20183;-87
2022/04/04 03:21:27;;;;;;;13.80;9.60;;;-2.40;99.90;;;;;;4978505;28;20552;-87
2022/04/04 03:23:54;;;;;;;16.07;9.97;;;-2.40;99.90;;;;;;4978822;28;20413;-87
2022/04/04 03:26:20;;;;;;;15.47;10.30;;;-2.40;99.90;;;;;;4979086;28;20644;-87
2022/04/04 03:28:46;;;;;;;14.63;9.97;;;-2.40;99.90;;;;;;4975518;28;20615;-87
2022/04/04 03:31:13;;;;;;;15.17;9.97;;;-2.40;99.90;;;;;;4962097;28;20231;-87
2022/04/04 03:33:39;;;;;;;15.40;10.40;;;-2.50;99.90;;;;;;4981892;28;20195;-87
2022/04/04 03:36:06;;;;;;;14.27;9.53;;;-2.50;99.90;;;;;;4978586;28;20210;-88
2022/04/04 03:38:33;;;;;;;15.33;10.47;;;-2.50;99.90;;;;;;4962301;28;20184;-87
2022/04/04 03:41:05;;;;;;;14.53;9.60;;;-2.50;99.90;;;;;;4961454;28;20211;-87
2022/04/04 03:43:31;;;;;;;13.50;9.10;;;-2.50;99.90;;;;;;4959914;28;20222;-87
2022/04/04 03:45:57;;;;;;;14.53;9.43;;;-2.50;99.90;;;;;;4964266;28;20176;-87
2022/04/04 03:48:23;;;;;;;15.13;10.40;;;-2.60;99.90;;;;;;4975103;28;20186;-87
2022/04/04 03:50:54;;;;;;;13.03;9.67;;;-2.60;99.90;;;;;;4975745;28;20208;-87
2022/04/04 03:53:21;;;;;;;14.10;9.37;;;-2.60;99.90;;;;;;4975243;28;20203;-87
2022/04/04 03:55:48;;;;;;;14.80;9.60;;;-2.70;99.90;;;;;;4975456;28;20192;-87
2022/04/04 03:58:14;;;;;;;13.17;9.00;;;-2.70;99.90;;;;;;4977680;28;20234;-87
2022/04/04 04:00:42;;;;;;;15.03;9.70;;;-2.70;99.90;;;;;;4977207;28;20193;-87
2022/04/04 04:03:08;;;;;;;11.87;8.30;;;-2.70;99.90;;;;;;4978711;28;20686;-88
2022/04/04 04:05:35;;;;;;;13.40;9.27;;;-2.80;99.90;;;;;;4981318;28;20183;-87
2022/04/04 04:08:01;;;;;;;15.33;10.63;;;-2.80;99.90;;;;;;4980887;28;20175;-87
2022/04/04 04:10:27;;;;;;;16.30;9.93;;;-2.80;99.90;;;;;;4981159;28;20176;-87
2022/04/04 04:12:53;;;;;;;15.23;10.23;;;-2.80;99.90;;;;;;4984700;28;20229;-87
2022/04/04 04:15:25;;;;;;;16.13;10.23;;;-2.80;99.90;;;;;;5001022;28;20192;-86
2022/04/04 04:17:52;;;;;;;14.17;9.23;;;-2.80;99.90;;;;;;4977291;28;20211;-86
2022/04/04 04:20:19;;;;;;;14.63;9.90;;;-2.70;99.90;;;;;;4961709;28;20187;-86
2022/04/04 04:22:50;;;;;;;14.80;9.63;;;-2.80;99.90;;;;;;4961984;28;20203;-86
2022/04/04 04:25:17;;;;;;;17.00;9.47;;;-2.90;99.90;;;;;;4961867;28;20515;-86
2022/04/04 04:27:45;;;;;;;15.07;9.20;;;-2.90;99.90;;;;;;4961296;28;20180;-86
2022/04/04 04:30:16;;;;;;;14.30;8.53;;;-2.90;99.90;;;;;;4959381;28;20230;-86
2022/04/04 04:32:48;;;;;;;15.77;10.17;;;-2.90;99.90;;;;;;4960615;28;20200;-86
2022/04/04 04:35:15;;;;;;;14.13;9.30;;;-2.90;99.90;;;;;;4961192;28;20176;-87
2022/04/04 04:37:56;;;;;;;12.97;9.53;;;-2.90;99.90;;;;;;4960814;28;20180;-87
2022/04/04 04:40:35;;;;;;;12.50;8.97;;;-2.90;99.90;;;;;;4959838;28;20200;-87
2022/04/04 04:43:02;;;;;;;14.37;9.57;;;-2.90;99.90;;;;;;4960097;28;20226;-87
2022/04/04 04:45:28;;;;;;;15.37;9.73;;;-3.00;99.90;;;;;;4960735;28;20172;-87
2022/04/04 04:47:54;;;;;;;13.60;9.10;;;-3.00;99.90;;;;;;4960948;28;20184;-86
2022/04/04 04:50:22;;;;;;;14.00;9.50;;;-3.00;99.90;;;;;;4960423;28;20180;-87
2022/04/04 04:52:49;;;;;;;13.70;9.37;;;-3.00;99.90;;;;;;4959483;28;20204;-87
2022/04/04 04:55:16;;;;;;;13.87;9.70;;;-3.00;99.90;;;;;;4959451;28;20305;-87
2022/04/04 04:57:42;;;;;;;12.73;9.17;;;-3.00;99.90;;;;;;4974530;28;20234;-86
2022/04/04 05:00:13;;;;;;;13.33;9.43;;;-2.90;99.90;;;;;;4974610;28;20238;-87
2022/04/04 05:02:39;;;;;;;13.33;9.00;;;-2.90;99.90;;;;;;4973723;28;20759;-86
2022/04/04 05:05:05;;;;;;;12.40;8.83;;;-3.00;99.90;;;;;;4974451;28;20206;-87
2022/04/04 05:07:32;;;;;;;18.03;9.47;;;-3.00;99.90;;;;;;4974498;28;20191;-87
2022/04/04 05:09:58;;;;;;;13.57;8.97;;;-3.00;99.90;;;;;;4973604;28;20188;-86
2022/04/04 05:12:24;;;;;;;14.23;9.33;;;-3.00;99.90;;;;;;4973266;28;20200;-87
2022/04/04 05:14:50;;;;;;;13.87;9.63;;;-3.00;99.90;;;;;;4976272;28;20180;-87
2022/04/04 05:17:16;;;;;;;18.43;10.77;;;-3.00;99.90;;;;;;4976661;28;20533;-90
2022/04/04 05:19:43;;;;;;;16.67;10.37;;;-3.00;99.90;;;;;;4976906;28;20267;-83
2022/04/04 05:22:09;;;;;;;16.57;10.47;;;-3.10;99.90;;;;;;4976986;28;20220;-87
2022/04/04 05:24:35;;;;;;;18.77;11.23;;;-3.10;99.90;;;;;;4990301;28;20222;-86
2022/04/04 05:27:02;;;;;;;16.73;10.13;;;-3.00;99.90;;;;;;4977409;28;20179;-86
2022/04/04 05:29:28;;;;;;;13.50;9.87;;;-3.00;99.90;;;;;;4980132;28;20266;-86
2022/04/04 05:31:55;;;;;;;18.03;10.90;;;-2.90;99.90;;;;;;4962764;28;20180;-86
2022/04/04 05:34:22;;;;;;;15.80;10.00;;;-3.10;99.90;;;;;;4974008;28;20180;-86
2022/04/04 05:36:49;;;;;;;13.97;9.50;;;-3.10;99.90;;;;;;4973702;28;20207;-86
2022/04/04 05:39:15;;;;;;;17.83;10.40;;;-3.10;99.90;;;;;;4957771;28;20179;-86
2022/04/04 05:41:41;;;;;;;15.03;9.83;;;-3.10;99.90;;;;;;4973046;28;20262;-86
2022/04/04 05:44:07;;;;;;;16.87;10.80;;;-3.00;99.90;;;;;;4990982;28;20207;-86
2022/04/04 05:46:34;;;;;;;17.50;10.90;;;-3.00;99.90;;;;;;4971380;28;20171;-85
2022/04/04 05:49:01;;;;;;;16.40;10.60;;;-2.90;99.90;;;;;;4961618;28;20211;-86
2022/04/04 05:51:31;;;;;;;16.47;10.60;;;-2.80;99.90;;;;;;4966537;28;20188;-86
2022/04/04 05:53:57;;;;;;;15.73;10.50;;;-2.70;99.90;;;;;;4961541;28;20204;-86
2022/04/04 05:56:23;;;;;;;20.90;12.97;;;-2.60;99.90;;;;;;4977620;28;20183;-86
2022/04/04 05:58:49;;;;;;;16.03;11.93;;;-2.50;99.90;;;;;;4968827;28;20250;-86
2022/04/04 06:01:15;;;;;;;17.00;11.57;;;-2.50;99.90;;;;;;4980509;28;20187;-86
2022/04/04 06:03:41;;;;;;;18.20;12.63;;;-2.30;99.90;;;;;;4980506;28;20218;-86
2022/04/04 06:06:08;;;;;;;19.23;12.33;;;-2.30;99.90;;;;;;4977550;28;20226;-86
2022/04/04 06:08:34;;;;;;;16.57;11.13;;;-2.10;99.90;;;;;;4961241;28;20227;-86
2022/04/04 06:11:00;;;;;;;18.57;11.23;;;-2.10;99.90;;;;;;4977207;28;20642;-86
2022/04/04 06:13:26;;;;;;;13.77;10.17;;;-2.00;99.90;;;;;;4960979;28;20215;-86
2022/04/04 06:15:52;;;;;;;17.07;11.43;;;-1.90;99.90;;;;;;4977260;28;20226;-86
2022/04/04 06:18:18;;;;;;;20.23;13.03;;;-1.70;99.90;;;;;;4977030;28;20263;-86
2022/04/04 06:20:44;;;;;;;14.17;10.40;;;-1.60;99.90;;;;;;4963086;28;20283;-86
2022/04/04 06:23:14;;;;;;;27.00;16.57;;;-1.60;99.90;;;;;;4976904;28;20214;-86
2022/04/04 06:25:41;;;;;;;16.07;10.90;;;-1.50;99.90;;;;;;4977319;28;20180;-86
2022/04/04 06:28:08;;;;;;;13.73;9.50;;;-1.50;99.90;;;;;;4976787;28;20176;-86
2022/04/04 06:30:34;;;;;;;15.17;10.43;;;-1.40;99.90;;;;;;4976781;28;20182;-86
2022/04/04 06:33:04;;;;;;;15.63;9.80;;;-1.40;99.90;;;;;;4964407;28;20196;-86
2022/04/04 06:35:30;;;;;;;15.10;9.40;;;-1.30;99.90;;;;;;4960636;28;20203;-86
2022/04/04 06:37:56;;;;;;;12.60;9.37;;;-1.20;99.90;;;;;;4960743;28;20184;-86
2022/04/04 06:40:22;;;;;;;12.27;9.03;;;-1.10;99.90;;;;;;4960483;28;20187;-86
2022/04/04 06:42:49;;;;;;;17.27;10.07;;;-1.20;99.90;;;;;;4978344;28;20210;-86
2022/04/04 06:45:17;;;;;;;16.33;10.73;;;-1.00;99.90;;;;;;4979737;28;20298;-86
2022/04/04 06:47:43;;;;;;;13.97;9.83;;;-1.00;99.90;;;;;;4976523;28;20187;-86
2022/04/04 06:50:09;;;;;;;15.43;10.10;;;-0.90;99.90;;;;;;4960635;28;20266;-86
2022/04/04 06:52:35;;;;;;;13.37;10.10;;;-0.90;99.90;;;;;;4976358;28;20620;-86
2022/04/04 06:55:02;;;;;;;13.90;9.17;;;-0.80;99.90;;;;;;4976321;28;20219;-86
2022/04/04 06:57:28;;;;;;;13.13;9.03;;;-0.80;99.90;;;;;;4975922;28;20652;-86
2022/04/04 06:59:53;;;;;;;14.17;9.27;;;-0.70;99.90;;;;;;4976190;28;20203;-86
2022/04/04 07:02:19;;;;;;;14.47;10.60;;;-0.70;99.90;;;;;;4960367;28;20211;-86
2022/04/04 07:04:45;;;;;;;16.63;10.20;;;-0.60;99.90;;;;;;4960138;28;20222;-86
2022/04/04 07:07:11;;;;;;;15.40;10.20;;;-0.60;99.90;;;;;;4960279;28;20180;-86
2022/04/04 07:09:37;;;;;;;12.37;9.80;;;-0.50;99.90;;;;;;4959964;28;20196;-86
2022/04/04 07:12:05;;;;;;;13.93;10.33;;;-0.50;99.90;;;;;;4962184;28;20210;-86
2022/04/04 07:14:31;;;;;;;13.60;10.17;;;-0.40;99.90;;;;;;4995515;28;20180;-86
2022/04/04 07:16:57;;;;;;;13.97;9.27;;;-0.30;99.90;;;;;;4979511;28;20223;-86
2022/04/04 07:19:24;;;;;;;12.50;9.37;;;-0.20;99.90;;;;;;5013019;28;20287;-86
2022/04/04 07:21:51;;;;;;;15.27;9.73;;;-0.20;99.90;;;;;;4979034;28;20663;-86
2022/04/04 07:24:17;;;;;;;14.80;9.13;;;0.00;99.90;;;;;;4994938;28;20208;-86
2022/04/04 07:26:43;;;;;;;12.67;9.57;;;0.10;99.90;;;;;;4975586;28;20473;-86
2022/04/04 07:29:09;;;;;;;11.57;8.50;;;0.10;99.90;;;;;;4970256;28;20282;-86
2022/04/04 07:31:36;;;;;;;14.53;10.00;;;0.20;99.90;;;;;;4979217;28;20325;-86
2022/04/04 07:34:03;;;;;;;15.73;10.77;;;0.30;99.90;;;;;;4995366;28;20244;-86
2022/04/04 07:36:29;;;;;;;15.00;10.00;;;0.40;99.90;;;;;;4979216;28;20692;-86
2022/04/04 07:38:55;;;;;;;13.90;9.57;;;0.50;99.90;;;;;;4978463;28;20187;-86
2022/04/04 07:41:21;;;;;;;14.83;10.00;;;0.60;99.90;;;;;;4975419;28;20646;-86
2022/04/04 07:43:48;;;;;;;14.40;9.40;;;0.80;99.90;;;;;;4975388;28;20219;-86
2022/04/04 07:46:13;;;;;;;15.73;9.10;;;0.90;99.90;;;;;;4975905;28;20204;-86
2022/04/04 07:48:42;;;;;;;12.70;9.37;;;0.90;99.90;;;;;;4979187;28;20278;-86
2022/04/04 07:51:08;;;;;;;12.40;9.40;;;1.00;99.90;;;;;;4978452;28;20218;-87
2022/04/04 07:53:34;;;;;;;13.77;9.77;;;1.10;99.90;;;;;;4978176;28;20255;-87
2022/04/04 07:56:01;;;;;;;16.30;9.63;;;1.30;99.90;;;;;;4978697;28;20212;-87
2022/04/04 07:58:27;;;;;;;23.87;13.47;;;1.40;99.90;;;;;;4978666;28;20254;-86
2022/04/04 08:00:54;;;;;;;15.20;10.30;;;1.70;99.90;;;;;;4979297;28;20186;-92
2022/04/04 08:03:22;;;;;;;12.10;9.77;;;1.90;99.90;;;;;;4979934;28;20271;-87
2022/04/04 08:05:48;;;;;;;11.70;8.80;;;2.00;99.90;;;;;;4979844;28;20240;-88
2022/04/04 08:08:15;;;;;;;11.80;9.37;;;2.10;99.90;;;;;;4970806;28;20203;-88
2022/04/04 08:10:41;;;;;;;11.83;9.40;;;2.30;99.90;;;;;;4980126;28;20289;-87
2022/04/04 08:13:08;;;;;;;13.30;8.87;;;2.50;99.90;;;;;;4970161;28;20211;-88
2022/04/04 08:15:38;;;;;;;12.37;9.03;;;2.60;99.90;;;;;;4970057;28;20196;-88
2022/04/04 08:18:04;;;;;;;11.00;8.80;;;2.80;99.90;;;;;;4970691;28;20259;-86
2022/04/04 08:20:31;;;;;;;12.03;9.27;;;2.80;99.90;;;;;;4978381;28;20184;-86
2022/04/04 08:22:57;;;;;;;13.83;9.17;;;3.00;99.90;;;;;;4965658;28;20240;-87
2022/04/04 08:25:23;;;;;;;10.33;8.40;;;3.30;99.90;;;;;;4975229;28;20174;-87
2022/04/04 08:27:49;;;;;;;11.20;8.57;;;3.40;99.90;;;;;;4966203;28;20187;-86
2022/04/04 08:30:17;;;;;;;12.70;8.73;;;3.50;99.90;;;;;;4983534;28;20180;-86
2022/04/04 08:32:44;;;;;;;14.67;8.93;;;3.60;99.90;;;;;;4973315;28;20194;-86
2022/04/04 08:35:15;;;;;;;10.43;8.47;;;3.60;99.90;;;;;;4958193;28;20250;-86
2022/04/04 08:37:43;;;;;;;9.73;8.70;;;3.70;99.90;;;;;;4958942;28;20188;-86
2022/04/04 08:40:11;;;;;;;11.50;8.80;;;3.90;99.90;;;;;;4958482;28;20188;-86
2022/04/04 08:42:38;;;;;;;10.33;8.73;;;4.00;99.90;;;;;;4958543;28;20204;-86
2022/04/04 08:45:06;;;;;;;11.27;8.73;;;4.10;99.90;;;;;;4974545;28;20207;-86
2022/04/04 08:47:33;;;;;;;10.73;7.43;;;4.00;99.90;;;;;;4975432;28;20180;-86
2022/04/04 08:50:00;;;;;;;11.10;8.47;;;4.30;99.90;;;;;;4957969;28;20180;-86
2022/04/04 08:52:27;;;;;;;10.93;8.33;;;4.40;99.90;;;;;;4958543;28;20196;-86
2022/04/04 08:54:53;;;;;;;10.73;8.30;;;4.40;99.90;;;;;;4964831;28;20194;-86
2022/04/04 08:57:19;;;;;;;8.13;6.80;;;4.40;99.90;;;;;;4958320;28;20183;-86
2022/04/04 08:59:45;;;;;;;11.93;7.00;;;4.60;99.90;;;;;;4989266;28;20325;-86
2022/04/04 09:02:13;;;;;;;9.07;7.00;;;4.60;99.90;;;;;;4974355;28;20272;-86
2022/04/04 09:04:40;;;;;;;7.70;6.80;;;4.60;99.90;;;;;;4973686;28;20216;-86
2022/04/04 09:07:08;;;;;;;8.00;6.37;;;4.60;99.90;;;;;;4974367;28;20187;-86
2022/04/04 09:09:50;;;;;;;10.30;7.10;;;4.60;99.90;;;;;;4958017;28;20188;-86
2022/04/04 09:12:22;;;;;;;8.93;6.67;;;4.70;99.90;;;;;;4973846;28;20199;-86
2022/04/04 09:14:54;;;;;;;7.83;6.67;;;4.70;99.90;;;;;;4957558;28;20191;-86
2022/04/04 09:17:27;;;;;;;11.60;6.70;;;4.80;99.90;;;;;;4957453;28;20203;-86
2022/04/04 09:19:53;;;;;;;8.10;6.73;;;5.00;99.90;;;;;;4964330;28;20184;-86
2022/04/04 09:22:19;;;;;;;8.73;6.40;;;5.10;99.90;;;;;;4956837;28;20204;-86
2022/04/04 09:24:57;;;;;;;9.07;6.20;;;5.20;99.90;;;;;;4989166;28;20219;-86
2022/04/04 09:27:34;;;;;;;8.53;6.50;;;5.20;99.90;;;;;;4956660;28;20237;-86
2022/04/04 09:30:01;;;;;;;7.77;6.30;;;5.20;99.90;;;;;;4992159;28;20190;-86
2022/04/04 09:32:37;;;;;;;8.17;6.10;;;5.30;99.90;;;;;;4975890;28;20551;-86
2022/04/04 09:35:09;;;;;;;7.33;6.20;;;5.30;99.90;;;;;;4974018;28;20214;-86
2022/04/04 09:37:36;;;;;;;7.47;5.77;;;5.10;99.90;;;;;;4956855;28;20180;-86
2022/04/04 09:40:08;;;;;;;6.90;5.43;;;5.10;99.90;;;;;;4972806;28;20179;-86
2022/04/04 09:42:34;;;;;;;6.33;5.70;;;5.30;99.90;;;;;;4972403;28;20200;-87
2022/04/04 09:45:09;;;;;;;6.70;5.73;;;5.40;99.90;;;;;;4957016;28;20311;-86
2022/04/04 09:47:58;;;;;;;6.17;5.57;;;5.40;99.90;;;;;;4957787;28;20204;-78
2022/04/04 09:50:36;;;;;;;6.47;5.70;;;5.60;99.90;;;;;;4956600;28;20188;-88
2022/04/04 09:53:10;;;;;;;6.80;5.33;;;5.60;99.90;;;;;;4965436;28;20203;-87
2022/04/04 09:55:56;;;;;;;7.10;5.73;;;5.70;99.90;;;;;;4966240;28;20298;-87
2022/04/04 09:58:29;;;;;;;7.43;5.80;;;5.90;99.90;;;;;;4972544;28;20272;-86
2022/04/04 10:01:00;;;;;;;8.10;5.13;;;5.90;99.90;;;;;;4975987;28;20202;-86
2022/04/04 10:03:31;;;;;;;6.10;5.43;;;5.90;99.90;;;;;;4966790;28;20695;-87
2022/04/04 10:06:01;;;;;;;6.07;5.47;;;5.90;99.90;;;;;;4973398;28;20187;-87
2022/04/04 10:08:37;;;;;;;9.17;5.30;;;5.90;99.90;;;;;;4968745;28;20235;-87
2022/04/04 10:11:08;;;;;;;7.43;5.50;;;5.80;99.90;;;;;;4972739;28;20184;-86
2022/04/04 10:13:41;;;;;;;5.27;4.77;;;5.90;99.90;;;;;;4983636;28;20207;-87
2022/04/04 10:16:07;;;;;;;5.73;4.97;;;5.80;99.90;;;;;;4941385;28;1195926;-87
2022/04/04 10:18:36;;;;;;;5.60;5.10;;;5.90;99.90;;;;;;4951881;28;20174;-86
2022/04/04 10:21:05;;;;;;;8.80;5.00;;;6.00;99.90;;;;;;4969125;28;20247;-87
2022/04/04 10:23:43;;;;;;;7.90;5.00;;;5.80;99.90;;;;;;4974557;28;20212;-86
2022/04/04 10:26:12;;;;;;;6.13;4.90;;;5.60;99.90;;;;;;4993782;28;20190;-86
2022/04/04 10:28:39;;;;;;;5.20;4.70;;;5.70;99.90;;;;;;4982222;28;20186;-87
2022/04/04 10:31:12;;;;;;;6.30;5.43;;;5.80;99.90;;;;;;4974075;28;20189;-87
2022/04/04 10:33:52;;;;;;;7.43;5.23;;;5.90;99.90;;;;;;4995288;28;20199;-86
2022/04/04 10:36:24;;;;;;;6.37;5.37;;;6.10;99.90;;;;;;4963189;28;20176;-86
2022/04/04 10:38:50;;;;;;;7.30;4.77;;;6.20;99.90;;;;;;4963168;28;20201;-87
2022/04/04 10:41:27;;;;;;;6.67;5.03;;;6.10;99.90;;;;;;4961248;28;20184;-86
2022/04/04 10:43:55;;;;;;;5.50;4.90;;;6.10;99.90;;;;;;4960833;28;20223;-86
2022/04/04 10:46:23;;;;;;;5.70;5.13;;;6.20;99.90;;;;;;4960868;28;20184;-86
2022/04/04 10:48:51;;;;;;;6.67;5.43;;;6.20;99.90;;;;;;4973860;28;20186;-86
2022/04/04 10:51:29;;;;;;;6.57;5.30;;;6.30;99.90;;;;;;4980975;28;20204;-86
2022/04/04 10:54:02;;;;;;;6.37;5.50;;;6.40;99.90;;;;;;4980774;28;20230;-86
2022/04/04 10:56:30;;;;;;;6.27;5.47;;;6.50;99.90;;;;;;4980544;28;20193;-86
2022/04/04 10:59:15;;;;;;;6.20;4.90;;;6.70;99.90;;;;;;4979494;28;20207;-86
2022/04/04 11:01:50;;;;;;;5.80;4.93;;;6.80;99.90;;;;;;4978062;28;20255;-86
2022/04/04 11:04:26;;;;;;;5.90;5.00;;;6.70;99.90;;;;;;4998382;28;20235;-86
2022/04/04 11:09:57;;;;;;;5.83;4.90;;;7.00;99.90;;;;;;4998007;28;20264;-86
2022/04/04 11:12:25;;;;;;;5.73;5.17;;;6.90;99.90;;;;;;4979896;28;20198;-86
2022/04/04 11:15:07;;;;;;;7.33;5.07;;;6.80;99.90;;;;;;4979972;28;20187;-85
2022/04/04 11:17:35;;;;;;;8.00;6.13;;;6.80;99.90;;;;;;4981752;28;20196;-86
2022/04/04 11:20:21;;;;;;;9.13;6.47;;;6.70;99.90;;;;;;4981464;28;20187;-86
2022/04/04 11:22:55;;;;;;;7.73;5.97;;;6.80;99.90;;;;;;4979153;28;20211;-86
2022/04/04 11:25:22;;;;;;;6.50;5.73;;;6.90;99.90;;;;;;4979436;28;20211;-86
2022/04/04 11:27:49;;;;;;;5.67;5.07;;;7.10;99.90;;;;;;4979052;28;20181;-86
2022/04/04 11:30:20;;;;;;;6.27;5.20;;;6.90;99.90;;;;;;4975697;28;20181;-86
2022/04/04 11:32:49;;;;;;;6.43;5.70;;;7.00;99.90;;;;;;4960201;28;20204;-86
2022/04/04 11:35:27;;;;;;;6.30;5.70;;;7.10;99.90;;;;;;4959764;28;20194;-86
2022/04/04 11:38:20;;;;;;;8.67;6.20;;;7.30;99.90;;;;;;4959948;28;20548;-86
2022/04/04 11:40:57;;;;;;;7.10;5.97;;;7.60;99.90;;;;;;4961748;28;20213;-86
2022/04/04 11:43:24;;;;;;;7.63;6.13;;;7.70;99.90;;;;;;4960735;28;20250;-87
2022/04/04 11:45:53;;;;;;;7.93;6.23;;;7.80;99.90;;;;;;4962559;28;20187;-87
2022/04/04 11:48:24;;;;;;;6.37;5.77;;;7.90;99.90;;;;;;4961891;28;20193;-85
2022/04/04 11:50:57;;;;;;;6.03;5.43;;;7.80;99.90;;;;;;4961194;28;20542;-85
2022/04/04 11:53:28;;;;;;;7.20;6.37;;;7.90;99.90;;;;;;4960466;28;20203;-86
2022/04/04 11:56:03;;;;;;;8.33;6.87;;;7.80;99.90;;;;;;4958814;28;20207;-86
2022/04/04 11:58:29;;;;;;;6.40;5.60;;;7.70;99.90;;;;;;4962614;28;20237;-86
2022/04/04 12:01:04;;;;;;;7.93;6.30;;;7.60;99.90;;;;;;4978571;28;20182;-86
2022/04/04 12:03:32;;;;;;;9.27;7.30;;;7.60;99.90;;;;;;4977966;28;20218;-86
2022/04/04 12:06:06;;;;;;;8.53;6.10;;;7.80;99.90;;;;;;4995030;28;20182;-86
2022/04/04 12:08:32;;;;;;;6.73;5.90;;;8.10;99.90;;;;;;4978753;28;20557;-86
2022/04/04 12:10:58;;;;;;;8.50;6.17;;;8.20;99.90;;;;;;4974972;28;20169;-85
2022/04/04 12:13:26;;;;;;;6.50;5.77;;;8.00;99.90;;;;;;4975090;28;20204;-85
2022/04/04 12:15:54;;;;;;;7.87;6.30;;;7.90;99.90;;;;;;4974878;28;20183;-85
2022/04/04 12:18:28;;;;;;;7.07;6.30;;;7.80;99.90;;;;;;4975013;28;20206;-86
2022/04/04 12:20:57;;;;;;;7.53;6.30;;;7.90;99.90;;;;;;4959369;28;20194;-86
2022/04/04 12:26:12;;;;;;;7.70;6.20;;;8.20;99.90;;;;;;4987575;28;20218;-85
2022/04/04 12:28:56;;;;;;;8.23;6.53;;;8.10;99.90;;;;;;4977081;28;20240;-86
2022/04/04 12:31:25;;;;;;;7.20;6.17;;;8.30;99.90;;;;;;4978228;28;20187;-86
2022/04/04 12:34:07;;;;;;;7.37;6.13;;;8.20;99.90;;;;;;4978358;28;20301;-86
2022/04/04 12:36:39;;;;;;;7.57;6.53;;;8.40;99.90;;;;;;4977704;28;20206;-86
2022/04/04 12:39:16;;;;;;;7.50;6.63;;;8.40;99.90;;;;;;4977559;28;20194;-86
2022/04/04 12:41:47;;;;;;;6.60;5.90;;;8.40;99.90;;;;;;4978074;28;20209;-86
2022/04/04 12:44:17;;;;;;;6.40;5.80;;;8.30;99.90;;;;;;4974011;28;20206;-86
2022/04/04 12:46:43;;;;;;;6.67;5.87;;;8.10;99.90;;;;;;4990774;28;20190;-86
2022/04/04 12:49:21;;;;;;;6.63;5.90;;;8.10;99.90;;;;;;4958095;28;20191;-86
2022/04/04 12:51:58;;;;;;;8.50;6.40;;;8.20;99.90;;;;;;4958223;28;20190;-86
2022/04/04 12:54:28;;;;;;;7.03;6.20;;;8.40;99.90;;;;;;4958022;28;20187;-86